• Join FlightAware (Why Join?)
  • Login
  • US Flag 
05:16PM EDT


 

Airport Tracker/Info


-or-


 

Live Flight TrackerFlight Track Log ✈ N173AA ✈ 22-Aug-2014 ✈ KPGV - KRDU

Flight Track Log - Related Links

Times and Time Zones

All times are in EDT time to prevent confusion due to time zone crossing. See the N173AA flight status page for this flight to view local times or setup timezone preferences in your user account.

Time Position Orientation Groundspeed Altitude Reporting Facility
EDT Latitude Longitude Course Direction KTS MPH feet Rate Location/Type
11:06PM 35.6847 -77.4253 278° West 177 204 4,900  Level Washington Center
11:07PM 35.6917 -77.4839 278° West 171 197 7,000 720 Climbing Washington Center
11:08PM 35.6933 -77.5664 271° West 232 267 6,500 -300 Descending Washington Center
11:09PM 35.7069 -77.6542 281° West 257 296 6,500  Level Washington Center
11:10PM 35.7244 -77.7383 284° West 257 296 6,500 -60 Level Washington Center
11:11PM 35.7433 -77.8458 282° West 254 292 6,400 -60 Descending Washington Center
11:12PM 35.7581 -77.9247 283° West 257 296 6,400  Level Washington Center
11:13PM 35.7692 -78.0114 279° West 256 295 6,400  Level Washington Center
11:14PM 35.7803 -78.0958 279° West 256 295 6,400  Level Washington Center
11:15PM 35.7919 -78.1811 280° West 256 295 6,500  Climbing Washington Center
11:16PM 35.8014 -78.2681 278° West 256 295 6,400 -60 Descending Washington Center
11:17PM 35.8133 -78.3556 280° West 256 295 6,400  Level Washington Center
11:17PM 35.8175 -78.3847 280° West 261 300 6,400  Level Washington Center
11:18PM 35.8311 -78.4592 283° West 256 295 6,400  Level Washington Center
11:18PM 35.8314 -78.4714 272° West 261 300 6,400 -1,620 Level Washington Center
11:19PM 35.8664 -78.5531 298° West 257 296 4,500 -1,680 Descending Washington Center
11:20PM 35.9033 -78.5978 316° Northwest 243 280 3,400 -780 Descending Washington Center
11:21PM 35.9350 -78.6597 302° West 168 193 3,000 -540 Descending Washington Center
11:22PM 35.9303 -78.7056 263° West 181 208 2,300 -960 Descending Washington Center
11:23PM 35.8997 -78.7550 233° Southwest 183 211 1,200 -1,260 Descending Washington Center
11:24PM 35.8881 -78.7672 220° Southwest 160 184 800 -840 Descending Washington Center
11:24PM 35.8686 -78.7922 226° Southwest 167 192 400 -540 Descending Washington Center
11:26PM 35.8667 -78.7833 284° West  Level FlightAware Approximate